sensor_id;sensor_type;location;lat;lon;timestamp;temperature;humidity
70003;DHT22;57341;51.984;5.088;2022-07-22T00:01:25;16.90;99.60
70003;DHT22;57341;51.984;5.088;2022-07-22T00:03:52;16.90;99.00
70003;DHT22;57341;51.984;5.088;2022-07-22T00:06:19;16.90;99.40
70003;DHT22;57341;51.984;5.088;2022-07-22T00:08:46;16.90;99.20
70003;DHT22;57341;51.984;5.088;2022-07-22T00:11:13;16.90;99.50
70003;DHT22;57341;51.984;5.088;2022-07-22T00:13:40;16.90;99.40
70003;DHT22;57341;51.984;5.088;2022-07-22T00:16:07;17.00;99.70
70003;DHT22;57341;51.984;5.088;2022-07-22T00:18:34;17.00;99.60
70003;DHT22;57341;51.984;5.088;2022-07-22T00:21:01;17.00;99.60
70003;DHT22;57341;51.984;5.088;2022-07-22T00:23:28;17.00;99.70
70003;DHT22;57341;51.984;5.088;2022-07-22T00:25:55;17.00;99.00
70003;DHT22;57341;51.984;5.088;2022-07-22T00:28:22;17.00;99.50
70003;DHT22;57341;51.984;5.088;2022-07-22T00:30:49;17.00;99.10
70003;DHT22;57341;51.984;5.088;2022-07-22T00:33:20;17.00;99.50
70003;DHT22;57341;51.984;5.088;2022-07-22T00:35:49;17.00;99.20
70003;DHT22;57341;51.984;5.088;2022-07-22T00:38:16;17.00;99.20
70003;DHT22;57341;51.984;5.088;2022-07-22T00:40:43;17.00;99.40
70003;DHT22;57341;51.984;5.088;2022-07-22T00:43:10;17.00;99.30
70003;DHT22;57341;51.984;5.088;2022-07-22T00:45:37;17.00;99.30
70003;DHT22;57341;51.984;5.088;2022-07-22T00:48:04;17.00;98.90
70003;DHT22;57341;51.984;5.088;2022-07-22T00:50:33;17.00;99.10
70003;DHT22;57341;51.984;5.088;2022-07-22T00:53:00;17.00;99.00
70003;DHT22;57341;51.984;5.088;2022-07-22T00:55:28;17.00;99.10
70003;DHT22;57341;51.984;5.088;2022-07-22T00:57:55;17.00;98.50
70003;DHT22;57341;51.984;5.088;2022-07-22T01:00:23;17.10;99.00
70003;DHT22;57341;51.984;5.088;2022-07-22T01:02:51;17.10;98.90
70003;DHT22;57341;51.984;5.088;2022-07-22T01:05:18;17.10;98.90
70003;DHT22;57341;51.984;5.088;2022-07-22T01:07:45;17.10;98.80
70003;DHT22;57341;51.984;5.088;2022-07-22T01:10:13;17.00;97.90
70003;DHT22;57341;51.984;5.088;2022-07-22T01:12:40;17.10;98.20
70003;DHT22;57341;51.984;5.088;2022-07-22T01:15:11;17.10;98.50
70003;DHT22;57341;51.984;5.088;2022-07-22T01:17:39;17.10;98.40
70003;DHT22;57341;51.984;5.088;2022-07-22T01:20:08;17.00;97.10
70003;DHT22;57341;51.984;5.088;2022-07-22T01:22:35;17.00;97.80
70003;DHT22;57341;51.984;5.088;2022-07-22T01:25:03;17.10;98.20
70003;DHT22;57341;51.984;5.088;2022-07-22T01:27:30;17.10;98.10
70003;DHT22;57341;51.984;5.088;2022-07-22T01:29:57;17.10;98.00
70003;DHT22;57341;51.984;5.088;2022-07-22T01:32:25;17.10;97.90
70003;DHT22;57341;51.984;5.088;2022-07-22T01:34:52;17.10;97.50
70003;DHT22;57341;51.984;5.088;2022-07-22T01:37:19;17.10;97.40
70003;DHT22;57341;51.984;5.088;2022-07-22T01:39:46;17.00;97.30
70003;DHT22;57341;51.984;5.088;2022-07-22T01:42:13;17.00;97.60
70003;DHT22;57341;51.984;5.088;2022-07-22T01:44:41;17.10;97.60
70003;DHT22;57341;51.984;5.088;2022-07-22T01:47:08;17.10;97.50
70003;DHT22;57341;51.984;5.088;2022-07-22T01:49:35;17.10;97.30
70003;DHT22;57341;51.984;5.088;2022-07-22T01:52:04;17.10;97.20
70003;DHT22;57341;51.984;5.088;2022-07-22T01:54:34;17.10;97.20
70003;DHT22;57341;51.984;5.088;2022-07-22T01:57:01;17.00;97.00
70003;DHT22;57341;51.984;5.088;2022-07-22T01:59:29;17.10;97.00
70003;DHT22;57341;51.984;5.088;2022-07-22T02:01:57;17.00;96.90
70003;DHT22;57341;51.984;5.088;2022-07-22T02:04:24;17.00;96.90
70003;DHT22;57341;51.984;5.088;2022-07-22T02:06:53;17.00;96.70
70003;DHT22;57341;51.984;5.088;2022-07-22T02:09:20;17.00;96.90
70003;DHT22;57341;51.984;5.088;2022-07-22T02:11:51;17.00;96.80
70003;DHT22;57341;51.984;5.088;2022-07-22T02:14:19;17.00;96.90
70003;DHT22;57341;51.984;5.088;2022-07-22T02:16:48;17.00;96.40
70003;DHT22;57341;51.984;5.088;2022-07-22T02:19:16;17.00;97.00
70003;DHT22;57341;51.984;5.088;2022-07-22T02:21:44;17.00;96.90
70003;DHT22;57341;51.984;5.088;2022-07-22T02:24:11;17.00;96.80
70003;DHT22;57341;51.984;5.088;2022-07-22T02:26:39;17.00;96.80
70003;DHT22;57341;51.984;5.088;2022-07-22T02:29:06;17.00;96.80
70003;DHT22;57341;51.984;5.088;2022-07-22T02:31:33;17.00;97.00
70003;DHT22;57341;51.984;5.088;2022-07-22T02:34:00;17.00;96.70
70003;DHT22;57341;51.984;5.088;2022-07-22T02:36:29;17.00;96.60
70003;DHT22;57341;51.984;5.088;2022-07-22T02:38:56;17.00;96.40
70003;DHT22;57341;51.984;5.088;2022-07-22T02:41:24;17.00;96.10
70003;DHT22;57341;51.984;5.088;2022-07-22T02:43:55;17.10;96.40
70003;DHT22;57341;51.984;5.088;2022-07-22T02:46:23;17.00;96.50
70003;DHT22;57341;51.984;5.088;2022-07-22T02:48:51;17.00;96.30
70003;DHT22;57341;51.984;5.088;2022-07-22T02:51:21;17.00;96.20
70003;DHT22;57341;51.984;5.088;2022-07-22T02:53:49;17.00;96.10
70003;DHT22;57341;51.984;5.088;2022-07-22T02:56:16;17.00;95.90
70003;DHT22;57341;51.984;5.088;2022-07-22T02:58:43;17.00;96.00
70003;DHT22;57341;51.984;5.088;2022-07-22T03:01:10;17.00;95.80
70003;DHT22;57341;51.984;5.088;2022-07-22T03:03:46;17.00;95.90
70003;DHT22;57341;51.984;5.088;2022-07-22T03:06:13;17.00;95.90
70003;DHT22;57341;51.984;5.088;2022-07-22T03:09:00;17.00;95.90
70003;DHT22;57341;51.984;5.088;2022-07-22T03:11:29;17.00;95.70
70003;DHT22;57341;51.984;5.088;2022-07-22T03:13:56;17.00;95.70
70003;DHT22;57341;51.984;5.088;2022-07-22T03:16:23;17.10;95.50
70003;DHT22;57341;51.984;5.088;2022-07-22T03:18:50;17.00;95.60
70003;DHT22;57341;51.984;5.088;2022-07-22T03:21:17;17.00;95.50
70003;DHT22;57341;51.984;5.088;2022-07-22T03:23:44;17.10;95.50
70003;DHT22;57341;51.984;5.088;2022-07-22T03:26:12;17.00;95.40
70003;DHT22;57341;51.984;5.088;2022-07-22T03:28:39;17.00;95.40
70003;DHT22;57341;51.984;5.088;2022-07-22T03:31:06;17.00;95.30
70003;DHT22;57341;51.984;5.088;2022-07-22T03:33:33;17.00;95.20
70003;DHT22;57341;51.984;5.088;2022-07-22T03:36:01;17.00;95.10
70003;DHT22;57341;51.984;5.088;2022-07-22T03:38:28;17.00;95.10
70003;DHT22;57341;51.984;5.088;2022-07-22T03:40:57;17.00;95.00
70003;DHT22;57341;51.984;5.088;2022-07-22T03:43:24;17.00;95.00
70003;DHT22;57341;51.984;5.088;2022-07-22T03:45:51;17.00;95.00
70003;DHT22;57341;51.984;5.088;2022-07-22T03:48:18;17.00;94.90
70003;DHT22;57341;51.984;5.088;2022-07-22T03:50:45;17.00;94.00
70003;DHT22;57341;51.984;5.088;2022-07-22T03:53:14;17.00;94.90
70003;DHT22;57341;51.984;5.088;2022-07-22T03:55:41;17.00;94.90
70003;DHT22;57341;51.984;5.088;2022-07-22T03:58:08;17.00;94.50
70003;DHT22;57341;51.984;5.088;2022-07-22T04:00:35;17.00;94.60
70003;DHT22;57341;51.984;5.088;2022-07-22T04:03:05;17.00;94.60
70003;DHT22;57341;51.984;5.088;2022-07-22T04:05:50;17.10;94.50
70003;DHT22;57341;51.984;5.088;2022-07-22T04:08:27;17.00;94.50
70003;DHT22;57341;51.984;5.088;2022-07-22T04:10:54;17.10;94.60
70003;DHT22;57341;51.984;5.088;2022-07-22T04:13:22;17.10;94.70
70003;DHT22;57341;51.984;5.088;2022-07-22T04:15:55;17.10;94.60
70003;DHT22;57341;51.984;5.088;2022-07-22T04:18:22;17.10;94.60
70003;DHT22;57341;51.984;5.088;2022-07-22T04:20:50;17.10;94.50
70003;DHT22;57341;51.984;5.088;2022-07-22T04:23:35;17.10;94.50
70003;DHT22;57341;51.984;5.088;2022-07-22T04:26:15;17.20;94.50
70003;DHT22;57341;51.984;5.088;2022-07-22T04:28:42;17.20;93.90
70003;DHT22;57341;51.984;5.088;2022-07-22T04:31:09;17.20;94.30
70003;DHT22;57341;51.984;5.088;2022-07-22T04:33:40;17.20;93.00
70003;DHT22;57341;51.984;5.088;2022-07-22T04:36:07;17.30;94.20
70003;DHT22;57341;51.984;5.088;2022-07-22T04:38:34;17.30;93.70
70003;DHT22;57341;51.984;5.088;2022-07-22T04:41:04;17.30;93.40
70003;DHT22;57341;51.984;5.088;2022-07-22T04:43:31;17.30;93.80
70003;DHT22;57341;51.984;5.088;2022-07-22T04:45:58;17.40;93.80
70003;DHT22;57341;51.984;5.088;2022-07-22T04:48:29;17.40;93.70
70003;DHT22;57341;51.984;5.088;2022-07-22T04:51:01;17.50;93.60
70003;DHT22;57341;51.984;5.088;2022-07-22T04:53:29;17.50;92.40
70003;DHT22;57341;51.984;5.088;2022-07-22T04:56:11;17.60;92.90
70003;DHT22;57341;51.984;5.088;2022-07-22T04:58:38;17.60;92.90
70003;DHT22;57341;51.984;5.088;2022-07-22T05:01:05;17.70;93.00
70003;DHT22;57341;51.984;5.088;2022-07-22T05:03:32;17.70;92.80
70003;DHT22;57341;51.984;5.088;2022-07-22T05:06:02;17.70;92.80
70003;DHT22;57341;51.984;5.088;2022-07-22T05:08:35;17.80;92.60
70003;DHT22;57341;51.984;5.088;2022-07-22T05:11:03;17.90;92.30
70003;DHT22;57341;51.984;5.088;2022-07-22T05:13:31;17.90;92.40
70003;DHT22;57341;51.984;5.088;2022-07-22T05:16:05;18.00;92.10
70003;DHT22;57341;51.984;5.088;2022-07-22T05:18:34;18.00;91.80
70003;DHT22;57341;51.984;5.088;2022-07-22T05:21:02;18.10;92.20
70003;DHT22;57341;51.984;5.088;2022-07-22T05:23:30;18.20;92.00
70003;DHT22;57341;51.984;5.088;2022-07-22T05:25:57;18.20;92.00
70003;DHT22;57341;51.984;5.088;2022-07-22T05:28:24;18.30;91.40
70003;DHT22;57341;51.984;5.088;2022-07-22T05:30:52;18.30;91.60
70003;DHT22;57341;51.984;5.088;2022-07-22T13:27:08;28.60;41.30
70003;DHT22;57341;51.984;5.088;2022-07-22T13:29:35;28.40;41.20
70003;DHT22;57341;51.984;5.088;2022-07-22T13:32:03;28.20;41.60
70003;DHT22;57341;51.984;5.088;2022-07-22T13:34:50;28.40;41.70
70003;DHT22;57341;51.984;5.088;2022-07-22T13:37:17;28.60;41.10
70003;DHT22;57341;51.984;5.088;2022-07-22T13:39:44;28.90;40.40
70003;DHT22;57341;51.984;5.088;2022-07-22T13:42:13;28.90;39.90
70003;DHT22;57341;51.984;5.088;2022-07-22T13:44:40;28.50;40.30
70003;DHT22;57341;51.984;5.088;2022-07-22T13:47:07;28.10;40.90
70003;DHT22;57341;51.984;5.088;2022-07-22T13:49:34;28.10;41.40
70003;DHT22;57341;51.984;5.088;2022-07-22T13:52:02;27.80;41.90
70003;DHT22;57341;51.984;5.088;2022-07-22T13:54:33;27.90;41.80
70003;DHT22;57341;51.984;5.088;2022-07-22T13:57:00;27.50;42.10
70003;DHT22;57341;51.984;5.088;2022-07-22T13:59:28;27.40;42.30
70003;DHT22;57341;51.984;5.088;2022-07-22T14:01:57;27.10;42.50
70003;DHT22;57341;51.984;5.088;2022-07-22T14:04:24;26.90;40.30
70003;DHT22;57341;51.984;5.088;2022-07-22T14:06:51;26.60;42.80
70003;DHT22;57341;51.984;5.088;2022-07-22T14:09:19;26.30;41.90
70003;DHT22;57341;51.984;5.088;2022-07-22T14:12:02;26.30;44.50
70003;DHT22;57341;51.984;5.088;2022-07-22T14:14:30;26.60;44.40
70003;DHT22;57341;51.984;5.088;2022-07-22T14:17:00;26.90;44.20
70003;DHT22;57341;51.984;5.088;2022-07-22T14:19:29;27.00;43.80
70003;DHT22;57341;51.984;5.088;2022-07-22T14:21:57;27.20;42.60
70003;DHT22;57341;51.984;5.088;2022-07-22T14:24:23;27.20;43.50
70003;DHT22;57341;51.984;5.088;2022-07-22T14:26:51;27.10;42.90
70003;DHT22;57341;51.984;5.088;2022-07-22T14:29:19;27.10;43.50
70003;DHT22;57341;51.984;5.088;2022-07-22T14:31:49;26.90;42.60
70003;DHT22;57341;51.984;5.088;2022-07-22T14:34:16;26.80;43.90
70003;DHT22;57341;51.984;5.088;2022-07-22T14:36:46;26.80;43.90
70003;DHT22;57341;51.984;5.088;2022-07-22T14:39:13;26.90;44.10
70003;DHT22;57341;51.984;5.088;2022-07-22T14:41:40;27.00;43.40
70003;DHT22;57341;51.984;5.088;2022-07-22T14:44:07;27.20;44.10
70003;DHT22;57341;51.984;5.088;2022-07-22T14:46:34;27.40;43.80
70003;DHT22;57341;51.984;5.088;2022-07-22T14:49:02;27.70;42.40
70003;DHT22;57341;51.984;5.088;2022-07-22T14:51:30;27.90;42.20
70003;DHT22;57341;51.984;5.088;2022-07-22T14:53:57;28.40;42.20
70003;DHT22;57341;51.984;5.088;2022-07-22T14:56:24;28.60;41.10
70003;DHT22;57341;51.984;5.088;2022-07-22T14:58:51;28.60;40.40
70003;DHT22;57341;51.984;5.088;2022-07-22T15:01:18;28.60;40.50
70003;DHT22;57341;51.984;5.088;2022-07-22T15:03:53;27.90;40.90
70003;DHT22;57341;51.984;5.088;2022-07-22T15:06:19;27.80;42.00
70003;DHT22;57341;51.984;5.088;2022-07-22T15:08:47;27.80;41.80
70003;DHT22;57341;51.984;5.088;2022-07-22T15:11:14;27.70;42.30
70003;DHT22;57341;51.984;5.088;2022-07-22T15:13:41;27.70;42.30
70003;DHT22;57341;51.984;5.088;2022-07-22T15:16:09;27.90;42.60
70003;DHT22;57341;51.984;5.088;2022-07-22T15:18:37;28.30;41.90
70003;DHT22;57341;51.984;5.088;2022-07-22T15:21:04;28.60;41.10
70003;DHT22;57341;51.984;5.088;2022-07-22T15:23:31;28.70;41.20
70003;DHT22;57341;51.984;5.088;2022-07-22T15:25:59;28.90;40.20
70003;DHT22;57341;51.984;5.088;2022-07-22T15:28:27;29.20;39.80
70003;DHT22;57341;51.984;5.088;2022-07-22T15:30:59;29.40;39.80
70003;DHT22;57341;51.984;5.088;2022-07-22T15:33:26;29.80;38.70
70003;DHT22;57341;51.984;5.088;2022-07-22T15:36:02;30.30;38.10
70003;DHT22;57341;51.984;5.088;2022-07-22T15:38:32;30.40;37.70
70003;DHT22;57341;51.984;5.088;2022-07-22T15:41:00;30.20;37.10
70003;DHT22;57341;51.984;5.088;2022-07-22T15:43:27;29.90;37.60
70003;DHT22;57341;51.984;5.088;2022-07-22T15:45:54;29.50;38.50
70003;DHT22;57341;51.984;5.088;2022-07-22T15:48:21;29.10;38.80
70003;DHT22;57341;51.984;5.088;2022-07-22T15:50:48;28.60;39.40
70003;DHT22;57341;51.984;5.088;2022-07-22T15:53:15;28.30;40.30
70003;DHT22;57341;51.984;5.088;2022-07-22T15:55:42;28.00;41.10
70003;DHT22;57341;51.984;5.088;2022-07-22T15:58:10;27.70;41.80
70003;DHT22;57341;51.984;5.088;2022-07-22T16:00:55;27.80;42.20
70003;DHT22;57341;51.984;5.088;2022-07-22T16:03:22;28.00;41.60
70003;DHT22;57341;51.984;5.088;2022-07-22T16:05:54;28.20;41.20
70003;DHT22;57341;51.984;5.088;2022-07-22T16:08:21;28.00;40.70
70003;DHT22;57341;51.984;5.088;2022-07-22T16:10:49;27.80;41.50
70003;DHT22;57341;51.984;5.088;2022-07-22T16:13:17;27.60;41.80
70003;DHT22;57341;51.984;5.088;2022-07-22T16:15:44;27.60;42.10
70003;DHT22;57341;51.984;5.088;2022-07-22T16:18:11;27.60;41.80
70003;DHT22;57341;51.984;5.088;2022-07-22T16:20:42;27.50;42.30
70003;DHT22;57341;51.984;5.088;2022-07-22T16:23:09;27.50;42.50
70003;DHT22;57341;51.984;5.088;2022-07-22T16:25:37;27.30;42.80
70003;DHT22;57341;51.984;5.088;2022-07-22T16:28:04;27.20;42.80
70003;DHT22;57341;51.984;5.088;2022-07-22T16:30:31;27.00;43.50
70003;DHT22;57341;51.984;5.088;2022-07-22T16:32:58;27.00;43.60
70003;DHT22;57341;51.984;5.088;2022-07-22T16:35:25;27.20;43.20
70003;DHT22;57341;51.984;5.088;2022-07-22T16:37:52;27.10;43.40
70003;DHT22;57341;51.984;5.088;2022-07-22T16:40:27;27.00;43.40
70003;DHT22;57341;51.984;5.088;2022-07-22T16:42:54;26.80;43.70
70003;DHT22;57341;51.984;5.088;2022-07-22T16:45:22;26.70;44.30
70003;DHT22;57341;51.984;5.088;2022-07-22T16:47:53;26.80;44.80
70003;DHT22;57341;51.984;5.088;2022-07-22T16:50:21;27.30;44.40
70003;DHT22;57341;51.984;5.088;2022-07-22T16:52:51;27.60;42.60
70003;DHT22;57341;51.984;5.088;2022-07-22T16:55:18;27.50;42.50
70003;DHT22;57341;51.984;5.088;2022-07-22T16:57:51;27.20;42.80
70003;DHT22;57341;51.984;5.088;2022-07-22T17:00:18;26.90;42.80
70003;DHT22;57341;51.984;5.088;2022-07-22T17:02:45;26.40;43.40
70003;DHT22;57341;51.984;5.088;2022-07-22T17:05:13;26.20;44.40
70003;DHT22;57341;51.984;5.088;2022-07-22T17:07:40;26.00;45.10
70003;DHT22;57341;51.984;5.088;2022-07-22T17:10:08;25.70;45.70
70003;DHT22;57341;51.984;5.088;2022-07-22T17:12:35;25.50;46.20
70003;DHT22;57341;51.984;5.088;2022-07-22T17:15:03;25.50;47.00
70003;DHT22;57341;51.984;5.088;2022-07-22T17:17:30;25.40;47.10
70003;DHT22;57341;51.984;5.088;2022-07-22T17:19:57;25.50;47.40
70003;DHT22;57341;51.984;5.088;2022-07-22T17:22:24;25.80;47.10
70003;DHT22;57341;51.984;5.088;2022-07-22T17:24:53;26.00;46.20
70003;DHT22;57341;51.984;5.088;2022-07-22T17:27:21;26.20;45.60
70003;DHT22;57341;51.984;5.088;2022-07-22T17:29:53;26.10;45.50
70003;DHT22;57341;51.984;5.088;2022-07-22T17:32:20;25.90;45.40
70003;DHT22;57341;51.984;5.088;2022-07-22T17:34:48;25.80;46.00
70003;DHT22;57341;51.984;5.088;2022-07-22T17:37:15;25.70;46.20
70003;DHT22;57341;51.984;5.088;2022-07-22T17:39:43;25.60;46.30
70003;DHT22;57341;51.984;5.088;2022-07-22T17:42:11;25.30;46.70
70003;DHT22;57341;51.984;5.088;2022-07-22T17:44:38;25.10;47.40
70003;DHT22;57341;51.984;5.088;2022-07-22T17:47:05;24.70;48.30
70003;DHT22;57341;51.984;5.088;2022-07-22T17:49:32;24.30;49.20
70003;DHT22;57341;51.984;5.088;2022-07-22T17:51:59;23.90;50.40
70003;DHT22;57341;51.984;5.088;2022-07-22T17:54:26;23.60;51.20
70003;DHT22;57341;51.984;5.088;2022-07-22T17:56:53;23.40;52.00
70003;DHT22;57341;51.984;5.088;2022-07-22T17:59:20;23.20;52.70
70003;DHT22;57341;51.984;5.088;2022-07-22T18:01:47;23.10;53.90
70003;DHT22;57341;51.984;5.088;2022-07-22T18:04:14;22.80;54.30
70003;DHT22;57341;51.984;5.088;2022-07-22T18:06:41;22.60;54.80
70003;DHT22;57341;51.984;5.088;2022-07-22T18:09:08;22.50;55.70
70003;DHT22;57341;51.984;5.088;2022-07-22T18:11:36;22.40;55.60
70003;DHT22;57341;51.984;5.088;2022-07-22T18:14:05;22.20;57.00
70003;DHT22;57341;51.984;5.088;2022-07-22T18:16:32;22.00;57.50
70003;DHT22;57341;51.984;5.088;2022-07-22T18:18:59;21.80;58.20
70003;DHT22;57341;51.984;5.088;2022-07-22T18:21:28;21.60;58.90
70003;DHT22;57341;51.984;5.088;2022-07-22T18:23:56;21.50;59.40
70003;DHT22;57341;51.984;5.088;2022-07-22T18:26:25;21.40;60.10
70003;DHT22;57341;51.984;5.088;2022-07-22T18:28:52;21.30;60.20
70003;DHT22;57341;51.984;5.088;2022-07-22T18:31:19;21.10;60.50
70003;DHT22;57341;51.984;5.088;2022-07-22T18:33:46;21.00;61.10
70003;DHT22;57341;51.984;5.088;2022-07-22T18:36:13;21.00;61.20
70003;DHT22;57341;51.984;5.088;2022-07-22T18:38:40;20.90;61.50
70003;DHT22;57341;51.984;5.088;2022-07-22T18:41:13;20.80;62.00
70003;DHT22;57341;51.984;5.088;2022-07-22T18:43:40;20.80;62.10
70003;DHT22;57341;51.984;5.088;2022-07-22T18:46:07;20.70;62.20
70003;DHT22;57341;51.984;5.088;2022-07-22T18:48:35;20.60;62.40
70003;DHT22;57341;51.984;5.088;2022-07-22T18:51:02;20.60;62.90
70003;DHT22;57341;51.984;5.088;2022-07-22T18:53:30;20.50;63.20
70003;DHT22;57341;51.984;5.088;2022-07-22T18:55:58;20.50;63.40
70003;DHT22;57341;51.984;5.088;2022-07-22T18:58:25;20.40;63.60
70003;DHT22;57341;51.984;5.088;2022-07-22T19:00:52;20.40;64.20
70003;DHT22;57341;51.984;5.088;2022-07-22T19:03:19;20.20;64.30
70003;DHT22;57341;51.984;5.088;2022-07-22T19:05:53;20.20;64.50
70003;DHT22;57341;51.984;5.088;2022-07-22T19:08:20;20.10;64.90
70003;DHT22;57341;51.984;5.088;2022-07-22T19:10:47;20.10;65.10
70003;DHT22;57341;51.984;5.088;2022-07-22T19:13:14;20.10;65.50
70003;DHT22;57341;51.984;5.088;2022-07-22T19:15:41;20.20;65.80
70003;DHT22;57341;51.984;5.088;2022-07-22T19:18:09;20.30;65.60
70003;DHT22;57341;51.984;5.088;2022-07-22T19:20:36;20.30;65.70
70003;DHT22;57341;51.984;5.088;2022-07-22T19:23:03;20.30;65.70
70003;DHT22;57341;51.984;5.088;2022-07-22T19:25:30;20.30;65.50
70003;DHT22;57341;51.984;5.088;2022-07-22T19:27:56;20.30;65.70
70003;DHT22;57341;51.984;5.088;2022-07-22T19:30:24;20.30;65.70
70003;DHT22;57341;51.984;5.088;2022-07-22T19:32:50;20.30;65.80
70003;DHT22;57341;51.984;5.088;2022-07-22T19:35:18;20.10;66.00
70003;DHT22;57341;51.984;5.088;2022-07-22T19:37:45;20.00;66.30
70003;DHT22;57341;51.984;5.088;2022-07-22T19:40:12;19.90;66.50
70003;DHT22;57341;51.984;5.088;2022-07-22T19:42:40;19.80;66.80
70003;DHT22;57341;51.984;5.088;2022-07-22T19:45:07;19.70;67.40
70003;DHT22;57341;51.984;5.088;2022-07-22T19:47:34;19.60;67.80
70003;DHT22;57341;51.984;5.088;2022-07-22T19:50:01;19.50;68.10
70003;DHT22;57341;51.984;5.088;2022-07-22T19:52:28;19.40;68.40
70003;DHT22;57341;51.984;5.088;2022-07-22T19:54:55;19.40;69.10
70003;DHT22;57341;51.984;5.088;2022-07-22T19:57:22;19.30;69.20
70003;DHT22;57341;51.984;5.088;2022-07-22T19:59:51;19.20;69.50
70003;DHT22;57341;51.984;5.088;2022-07-22T20:02:18;19.20;70.60
70003;DHT22;57341;51.984;5.088;2022-07-22T20:04:48;19.10;70.60
70003;DHT22;57341;51.984;5.088;2022-07-22T20:07:15;19.10;70.30
70003;DHT22;57341;51.984;5.088;2022-07-22T20:09:42;19.10;70.50
70003;DHT22;57341;51.984;5.088;2022-07-22T20:12:09;19.00;70.50
70003;DHT22;57341;51.984;5.088;2022-07-22T20:14:39;19.00;70.70
70003;DHT22;57341;51.984;5.088;2022-07-22T20:17:07;19.00;70.90
70003;DHT22;57341;51.984;5.088;2022-07-22T20:19:34;18.90;71.00
70003;DHT22;57341;51.984;5.088;2022-07-22T20:22:01;18.80;71.30
70003;DHT22;57341;51.984;5.088;2022-07-22T20:24:28;18.80;71.30
70003;DHT22;57341;51.984;5.088;2022-07-22T20:26:55;18.80;71.50
70003;DHT22;57341;51.984;5.088;2022-07-22T20:29:22;18.70;71.60
70003;DHT22;57341;51.984;5.088;2022-07-22T20:31:49;18.70;71.80
70003;DHT22;57341;51.984;5.088;2022-07-22T20:34:18;18.70;72.10
70003;DHT22;57341;51.984;5.088;2022-07-22T20:36:46;18.70;72.30
70003;DHT22;57341;51.984;5.088;2022-07-22T20:39:13;18.60;72.50
70003;DHT22;57341;51.984;5.088;2022-07-22T20:41:40;18.60;72.70
70003;DHT22;57341;51.984;5.088;2022-07-22T20:44:07;18.50;72.80
70003;DHT22;57341;51.984;5.088;2022-07-22T20:46:35;18.60;73.00
70003;DHT22;57341;51.984;5.088;2022-07-22T20:49:02;18.50;73.30
70003;DHT22;57341;51.984;5.088;2022-07-22T20:51:29;18.50;73.60
70003;DHT22;57341;51.984;5.088;2022-07-22T20:53:56;18.40;74.00
70003;DHT22;57341;51.984;5.088;2022-07-22T20:56:23;18.40;74.30
70003;DHT22;57341;51.984;5.088;2022-07-22T20:58:50;18.40;74.60
70003;DHT22;57341;51.984;5.088;2022-07-22T21:01:17;18.40;74.80
70003;DHT22;57341;51.984;5.088;2022-07-22T21:03:44;18.40;75.00
70003;DHT22;57341;51.984;5.088;2022-07-22T21:06:11;18.40;75.40
70003;DHT22;57341;51.984;5.088;2022-07-22T21:08:38;18.50;75.70
70003;DHT22;57341;51.984;5.088;2022-07-22T21:11:06;18.40;75.90
70003;DHT22;57341;51.984;5.088;2022-07-22T21:13:32;18.40;76.00
70003;DHT22;57341;51.984;5.088;2022-07-22T21:16:02;18.40;76.20
70003;DHT22;57341;51.984;5.088;2022-07-22T21:18:30;18.40;76.00
70003;DHT22;57341;51.984;5.088;2022-07-22T21:20:56;18.40;76.10
70003;DHT22;57341;51.984;5.088;2022-07-22T21:23:23;18.40;76.10
70003;DHT22;57341;51.984;5.088;2022-07-22T21:25:50;18.40;75.70
70003;DHT22;57341;51.984;5.088;2022-07-22T21:28:17;18.40;76.20
70003;DHT22;57341;51.984;5.088;2022-07-22T21:30:47;18.30;76.00
70003;DHT22;57341;51.984;5.088;2022-07-22T21:33:20;18.30;76.30
70003;DHT22;57341;51.984;5.088;2022-07-22T21:35:47;18.20;76.40
70003;DHT22;57341;51.984;5.088;2022-07-22T21:38:14;18.20;76.40
70003;DHT22;57341;51.984;5.088;2022-07-22T21:40:41;18.10;76.60
70003;DHT22;57341;51.984;5.088;2022-07-22T21:43:08;18.00;77.10
70003;DHT22;57341;51.984;5.088;2022-07-22T21:45:35;18.00;77.40
70003;DHT22;57341;51.984;5.088;2022-07-22T21:48:02;17.90;77.70
70003;DHT22;57341;51.984;5.088;2022-07-22T21:50:31;17.90;78.00
70003;DHT22;57341;51.984;5.088;2022-07-22T21:52:58;17.80;78.20
70003;DHT22;57341;51.984;5.088;2022-07-22T21:55:24;17.80;78.60
70003;DHT22;57341;51.984;5.088;2022-07-22T21:57:51;17.70;78.80
70003;DHT22;57341;51.984;5.088;2022-07-22T22:00:18;17.60;78.60
70003;DHT22;57341;51.984;5.088;2022-07-22T22:02:45;17.60;79.60
70003;DHT22;57341;51.984;5.088;2022-07-22T22:05:12;17.50;79.60
70003;DHT22;57341;51.984;5.088;2022-07-22T22:07:39;17.50;80.00
70003;DHT22;57341;51.984;5.088;2022-07-22T22:10:06;17.40;79.90
70003;DHT22;57341;51.984;5.088;2022-07-22T22:12:34;17.40;80.40
70003;DHT22;57341;51.984;5.088;2022-07-22T22:15:01;17.30;80.70
70003;DHT22;57341;51.984;5.088;2022-07-22T22:17:28;17.30;80.90
70003;DHT22;57341;51.984;5.088;2022-07-22T22:19:56;17.20;81.10
70003;DHT22;57341;51.984;5.088;2022-07-22T22:22:22;17.20;81.60
70003;DHT22;57341;51.984;5.088;2022-07-22T22:24:49;17.10;82.00
70003;DHT22;57341;51.984;5.088;2022-07-22T22:27:20;17.00;82.40
70003;DHT22;57341;51.984;5.088;2022-07-22T22:29:47;16.90;82.40
70003;DHT22;57341;51.984;5.088;2022-07-22T22:32:14;16.80;82.90
70003;DHT22;57341;51.984;5.088;2022-07-22T22:34:44;16.80;83.60
70003;DHT22;57341;51.984;5.088;2022-07-22T22:37:11;16.80;84.10
70003;DHT22;57341;51.984;5.088;2022-07-22T22:39:38;16.70;84.20
70003;DHT22;57341;51.984;5.088;2022-07-22T22:42:05;16.60;84.60
70003;DHT22;57341;51.984;5.088;2022-07-22T22:44:31;16.50;84.90
70003;DHT22;57341;51.984;5.088;2022-07-22T22:46:58;16.40;85.30
70003;DHT22;57341;51.984;5.088;2022-07-22T22:49:25;16.40;85.80
70003;DHT22;57341;51.984;5.088;2022-07-22T22:51:52;16.30;86.30
70003;DHT22;57341;51.984;5.088;2022-07-22T22:54:19;16.30;86.80
70003;DHT22;57341;51.984;5.088;2022-07-22T22:56:46;16.20;87.10
70003;DHT22;57341;51.984;5.088;2022-07-22T22:59:13;16.20;87.30
70003;DHT22;57341;51.984;5.088;2022-07-22T23:01:40;16.10;87.90
70003;DHT22;57341;51.984;5.088;2022-07-22T23:04:09;16.10;88.00
70003;DHT22;57341;51.984;5.088;2022-07-22T23:06:37;16.10;88.40
70003;DHT22;57341;51.984;5.088;2022-07-22T23:09:03;16.00;88.90
70003;DHT22;57341;51.984;5.088;2022-07-22T23:11:31;16.00;89.40
70003;DHT22;57341;51.984;5.088;2022-07-22T23:13:58;16.00;89.80
70003;DHT22;57341;51.984;5.088;2022-07-22T23:16:25;16.00;90.00
70003;DHT22;57341;51.984;5.088;2022-07-22T23:18:52;16.00;90.10
70003;DHT22;57341;51.984;5.088;2022-07-22T23:21:19;16.00;90.10
70003;DHT22;57341;51.984;5.088;2022-07-22T23:23:46;15.90;90.10
70003;DHT22;57341;51.984;5.088;2022-07-22T23:26:13;15.90;90.20
70003;DHT22;57341;51.984;5.088;2022-07-22T23:28:40;15.90;90.30